sensor_id;sensor_type;location;lat;lon;timestamp;P1;durP1;ratioP1;P2;durP2;ratioP2
7539;SDS011;3811;49.006;12.076;2023-10-19T00:00:46;10.27;;;7.33;;
7539;SDS011;3811;49.006;12.076;2023-10-19T00:03:15;8.97;;;6.27;;
7539;SDS011;3811;49.006;12.076;2023-10-19T00:05:42;9.53;;;6.30;;
7539;SDS011;3811;49.006;12.076;2023-10-19T00:08:10;8.37;;;5.40;;
7539;SDS011;3811;49.006;12.076;2023-10-19T00:10:40;9.83;;;7.03;;
7539;SDS011;3811;49.006;12.076;2023-10-19T00:13:11;13.90;;;7.30;;
7539;SDS011;3811;49.006;12.076;2023-10-19T00:15:37;8.80;;;6.10;;
7539;SDS011;3811;49.006;12.076;2023-10-19T00:18:06;9.53;;;4.80;;
7539;SDS011;3811;49.006;12.076;2023-10-19T00:20:46;7.83;;;5.83;;
7539;SDS011;3811;49.006;12.076;2023-10-19T00:23:24;6.80;;;5.20;;
7539;SDS011;3811;49.006;12.076;2023-10-19T00:25:54;8.30;;;7.27;;
7539;SDS011;3811;49.006;12.076;2023-10-19T00:28:23;12.30;;;6.80;;
7539;SDS011;3811;49.006;12.076;2023-10-19T00:30:51;10.83;;;7.43;;
7539;SDS011;3811;49.006;12.076;2023-10-19T00:33:18;9.43;;;7.17;;
7539;SDS011;3811;49.006;12.076;2023-10-19T00:35:47;10.00;;;6.47;;
7539;SDS011;3811;49.006;12.076;2023-10-19T00:38:19;9.10;;;7.23;;
7539;SDS011;3811;49.006;12.076;2023-10-19T00:41:04;12.27;;;6.97;;
7539;SDS011;3811;49.006;12.076;2023-10-19T00:43:33;9.67;;;6.33;;
7539;SDS011;3811;49.006;12.076;2023-10-19T00:46:08;9.83;;;7.00;;
7539;SDS011;3811;49.006;12.076;2023-10-19T00:48:39;12.10;;;6.50;;
7539;SDS011;3811;49.006;12.076;2023-10-19T00:51:06;9.67;;;6.47;;
7539;SDS011;3811;49.006;12.076;2023-10-19T00:53:35;8.90;;;6.33;;
7539;SDS011;3811;49.006;12.076;2023-10-19T00:56:04;8.00;;;6.23;;
7539;SDS011;3811;49.006;12.076;2023-10-19T00:58:36;9.07;;;7.03;;
7539;SDS011;3811;49.006;12.076;2023-10-19T01:01:06;10.10;;;7.37;;
7539;SDS011;3811;49.006;12.076;2023-10-19T01:03:34;8.00;;;6.43;;
7539;SDS011;3811;49.006;12.076;2023-10-19T01:06:03;12.93;;;8.73;;
7539;SDS011;3811;49.006;12.076;2023-10-19T01:08:36;12.27;;;6.70;;
7539;SDS011;3811;49.006;12.076;2023-10-19T01:11:08;11.97;;;6.57;;
7539;SDS011;3811;49.006;12.076;2023-10-19T01:13:39;9.07;;;6.40;;
7539;SDS011;3811;49.006;12.076;2023-10-19T01:16:13;7.93;;;5.37;;
7539;SDS011;3811;49.006;12.076;2023-10-19T01:18:46;8.30;;;6.57;;
7539;SDS011;3811;49.006;12.076;2023-10-19T01:21:13;9.63;;;6.93;;
7539;SDS011;3811;49.006;12.076;2023-10-19T01:23:46;10.73;;;6.30;;
7539;SDS011;3811;49.006;12.076;2023-10-19T01:26:14;8.30;;;6.03;;
7539;SDS011;3811;49.006;12.076;2023-10-19T01:28:47;9.10;;;6.73;;
7539;SDS011;3811;49.006;12.076;2023-10-19T01:31:16;8.20;;;6.37;;
7539;SDS011;3811;49.006;12.076;2023-10-19T01:33:48;8.73;;;6.43;;
7539;SDS011;3811;49.006;12.076;2023-10-19T01:36:15;10.43;;;6.57;;
7539;SDS011;3811;49.006;12.076;2023-10-19T01:38:52;7.50;;;5.87;;
7539;SDS011;3811;49.006;12.076;2023-10-19T01:41:20;7.20;;;5.63;;
7539;SDS011;3811;49.006;12.076;2023-10-19T01:43:47;11.27;;;7.10;;
7539;SDS011;3811;49.006;12.076;2023-10-19T01:46:14;9.37;;;6.60;;
7539;SDS011;3811;49.006;12.076;2023-10-19T01:48:47;7.63;;;6.50;;
7539;SDS011;3811;49.006;12.076;2023-10-19T01:51:15;8.93;;;7.13;;
7539;SDS011;3811;49.006;12.076;2023-10-19T01:53:42;9.53;;;7.33;;
7539;SDS011;3811;49.006;12.076;2023-10-19T01:56:10;8.97;;;6.97;;
7539;SDS011;3811;49.006;12.076;2023-10-19T01:58:38;9.90;;;6.37;;
7539;SDS011;3811;49.006;12.076;2023-10-19T02:01:05;7.90;;;6.77;;
7539;SDS011;3811;49.006;12.076;2023-10-19T02:03:39;8.47;;;6.90;;
7539;SDS011;3811;49.006;12.076;2023-10-19T02:06:07;9.47;;;6.97;;
7539;SDS011;3811;49.006;12.076;2023-10-19T02:08:43;8.80;;;6.13;;
7539;SDS011;3811;49.006;12.076;2023-10-19T02:11:14;10.30;;;7.13;;
7539;SDS011;3811;49.006;12.076;2023-10-19T02:13:43;12.67;;;8.80;;
7539;SDS011;3811;49.006;12.076;2023-10-19T02:16:11;10.57;;;7.20;;
7539;SDS011;3811;49.006;12.076;2023-10-19T02:18:41;9.20;;;6.80;;
7539;SDS011;3811;49.006;12.076;2023-10-19T02:21:07;8.87;;;6.07;;
7539;SDS011;3811;49.006;12.076;2023-10-19T02:23:37;11.30;;;6.93;;
7539;SDS011;3811;49.006;12.076;2023-10-19T02:26:04;7.37;;;6.47;;
7539;SDS011;3811;49.006;12.076;2023-10-19T02:28:34;11.43;;;6.13;;
7539;SDS011;3811;49.006;12.076;2023-10-19T02:31:02;9.03;;;6.57;;
7539;SDS011;3811;49.006;12.076;2023-10-19T02:33:40;12.03;;;7.27;;
7539;SDS011;3811;49.006;12.076;2023-10-19T02:36:11;9.47;;;6.53;;
7539;SDS011;3811;49.006;12.076;2023-10-19T02:38:39;9.87;;;6.90;;
7539;SDS011;3811;49.006;12.076;2023-10-19T02:41:08;11.30;;;7.03;;
7539;SDS011;3811;49.006;12.076;2023-10-19T02:43:37;8.10;;;5.87;;
7539;SDS011;3811;49.006;12.076;2023-10-19T02:46:03;11.90;;;8.13;;
7539;SDS011;3811;49.006;12.076;2023-10-19T02:48:30;10.37;;;7.67;;
7539;SDS011;3811;49.006;12.076;2023-10-19T02:50:56;8.57;;;5.60;;
7539;SDS011;3811;49.006;12.076;2023-10-19T02:53:31;7.93;;;6.23;;
7539;SDS011;3811;49.006;12.076;2023-10-19T02:55:59;8.33;;;6.43;;
7539;SDS011;3811;49.006;12.076;2023-10-19T02:58:27;10.73;;;7.50;;
7539;SDS011;3811;49.006;12.076;2023-10-19T03:00:54;9.57;;;7.90;;
7539;SDS011;3811;49.006;12.076;2023-10-19T03:03:23;10.60;;;7.47;;
7539;SDS011;3811;49.006;12.076;2023-10-19T03:05:49;14.03;;;6.87;;
7539;SDS011;3811;49.006;12.076;2023-10-19T03:08:18;8.47;;;6.57;;
7539;SDS011;3811;49.006;12.076;2023-10-19T03:10:44;8.37;;;6.97;;
7539;SDS011;3811;49.006;12.076;2023-10-19T03:13:12;7.77;;;5.67;;
7539;SDS011;3811;49.006;12.076;2023-10-19T03:15:40;11.80;;;7.93;;
7539;SDS011;3811;49.006;12.076;2023-10-19T03:18:10;7.33;;;6.30;;
7539;SDS011;3811;49.006;12.076;2023-10-19T03:20:37;7.07;;;6.37;;
7539;SDS011;3811;49.006;12.076;2023-10-19T03:23:06;11.03;;;6.87;;
7539;SDS011;3811;49.006;12.076;2023-10-19T03:25:35;9.57;;;6.53;;
7539;SDS011;3811;49.006;12.076;2023-10-19T03:28:20;11.17;;;6.80;;
7539;SDS011;3811;49.006;12.076;2023-10-19T03:30:50;12.83;;;7.30;;
7539;SDS011;3811;49.006;12.076;2023-10-19T03:33:21;8.83;;;6.33;;
7539;SDS011;3811;49.006;12.076;2023-10-19T03:35:52;9.93;;;6.93;;
7539;SDS011;3811;49.006;12.076;2023-10-19T03:38:20;10.97;;;6.80;;
7539;SDS011;3811;49.006;12.076;2023-10-19T03:40:48;8.50;;;6.30;;
7539;SDS011;3811;49.006;12.076;2023-10-19T03:43:23;8.40;;;7.00;;
7539;SDS011;3811;49.006;12.076;2023-10-19T03:45:52;11.73;;;7.23;;
7539;SDS011;3811;49.006;12.076;2023-10-19T03:48:21;7.20;;;6.27;;
7539;SDS011;3811;49.006;12.076;2023-10-19T03:50:52;9.30;;;5.53;;
7539;SDS011;3811;49.006;12.076;2023-10-19T03:53:21;12.17;;;6.37;;
7539;SDS011;3811;49.006;12.076;2023-10-19T03:55:48;8.03;;;6.53;;
7539;SDS011;3811;49.006;12.076;2023-10-19T03:58:17;12.57;;;7.80;;
7539;SDS011;3811;49.006;12.076;2023-10-19T04:00:46;7.20;;;6.10;;
7539;SDS011;3811;49.006;12.076;2023-10-19T04:03:15;10.60;;;6.13;;
7539;SDS011;3811;49.006;12.076;2023-10-19T04:05:44;11.53;;;6.67;;
7539;SDS011;3811;49.006;12.076;2023-10-19T04:08:14;9.13;;;5.97;;
7539;SDS011;3811;49.006;12.076;2023-10-19T04:10:45;8.53;;;6.07;;
7539;SDS011;3811;49.006;12.076;2023-10-19T04:13:33;7.67;;;6.37;;
7539;SDS011;3811;49.006;12.076;2023-10-19T04:16:01;7.23;;;6.27;;
7539;SDS011;3811;49.006;12.076;2023-10-19T04:18:28;10.10;;;6.47;;
7539;SDS011;3811;49.006;12.076;2023-10-19T04:20:56;7.40;;;6.03;;
7539;SDS011;3811;49.006;12.076;2023-10-19T04:23:24;6.90;;;6.10;;
7539;SDS011;3811;49.006;12.076;2023-10-19T04:25:54;10.50;;;7.40;;
7539;SDS011;3811;49.006;12.076;2023-10-19T04:28:28;9.50;;;5.97;;
7539;SDS011;3811;49.006;12.076;2023-10-19T04:31:03;10.03;;;6.33;;
7539;SDS011;3811;49.006;12.076;2023-10-19T04:33:31;8.03;;;5.63;;
7539;SDS011;3811;49.006;12.076;2023-10-19T04:36:00;6.67;;;5.53;;
7539;SDS011;3811;49.006;12.076;2023-10-19T04:38:27;8.90;;;6.53;;
7539;SDS011;3811;49.006;12.076;2023-10-19T04:41:05;8.20;;;6.93;;
7539;SDS011;3811;49.006;12.076;2023-10-19T04:43:35;10.23;;;6.93;;
7539;SDS011;3811;49.006;12.076;2023-10-19T04:46:06;7.43;;;5.63;;
7539;SDS011;3811;49.006;12.076;2023-10-19T04:48:36;8.87;;;6.77;;
7539;SDS011;3811;49.006;12.076;2023-10-19T04:51:06;8.33;;;5.43;;
7539;SDS011;3811;49.006;12.076;2023-10-19T04:53:34;8.50;;;6.37;;
7539;SDS011;3811;49.006;12.076;2023-10-19T04:56:02;9.73;;;6.77;;
7539;SDS011;3811;49.006;12.076;2023-10-19T04:58:29;9.93;;;6.73;;
7539;SDS011;3811;49.006;12.076;2023-10-19T05:00:56;8.03;;;5.43;;
7539;SDS011;3811;49.006;12.076;2023-10-19T05:03:24;7.80;;;5.77;;
7539;SDS011;3811;49.006;12.076;2023-10-19T05:05:53;7.10;;;6.30;;
7539;SDS011;3811;49.006;12.076;2023-10-19T05:08:23;9.13;;;6.70;;
7539;SDS011;3811;49.006;12.076;2023-10-19T05:10:51;8.87;;;6.43;;
7539;SDS011;3811;49.006;12.076;2023-10-19T05:13:19;6.93;;;6.23;;
7539;SDS011;3811;49.006;12.076;2023-10-19T05:15:46;9.73;;;7.23;;
7539;SDS011;3811;49.006;12.076;2023-10-19T05:18:13;8.87;;;6.27;;
7539;SDS011;3811;49.006;12.076;2023-10-19T05:20:40;8.70;;;5.63;;
7539;SDS011;3811;49.006;12.076;2023-10-19T05:23:08;8.40;;;7.03;;
7539;SDS011;3811;49.006;12.076;2023-10-19T05:25:37;7.60;;;6.20;;
7539;SDS011;3811;49.006;12.076;2023-10-19T05:28:04;11.63;;;7.13;;
7539;SDS011;3811;49.006;12.076;2023-10-19T05:30:31;10.00;;;8.10;;
7539;SDS011;3811;49.006;12.076;2023-10-19T05:32:59;10.43;;;7.93;;
7539;SDS011;3811;49.006;12.076;2023-10-19T05:35:26;9.07;;;7.30;;
7539;SDS011;3811;49.006;12.076;2023-10-19T05:37:54;13.43;;;6.83;;
7539;SDS011;3811;49.006;12.076;2023-10-19T05:40:22;10.83;;;6.40;;
7539;SDS011;3811;49.006;12.076;2023-10-19T05:42:55;11.57;;;6.40;;
7539;SDS011;3811;49.006;12.076;2023-10-19T05:45:26;9.73;;;7.50;;
7539;SDS011;3811;49.006;12.076;2023-10-19T05:47:54;10.37;;;6.63;;
7539;SDS011;3811;49.006;12.076;2023-10-19T05:50:22;12.70;;;7.17;;
7539;SDS011;3811;49.006;12.076;2023-10-19T05:52:49;9.10;;;6.73;;
7539;SDS011;3811;49.006;12.076;2023-10-19T05:55:17;10.07;;;6.97;;
7539;SDS011;3811;49.006;12.076;2023-10-19T05:57:46;7.53;;;6.73;;
7539;SDS011;3811;49.006;12.076;2023-10-19T06:00:17;10.87;;;6.27;;
7539;SDS011;3811;49.006;12.076;2023-10-19T06:02:46;8.43;;;7.00;;
7539;SDS011;3811;49.006;12.076;2023-10-19T06:05:14;7.87;;;6.77;;
7539;SDS011;3811;49.006;12.076;2023-10-19T06:07:41;10.70;;;7.57;;
7539;SDS011;3811;49.006;12.076;2023-10-19T06:10:10;11.50;;;7.93;;
7539;SDS011;3811;49.006;12.076;2023-10-19T06:12:42;10.03;;;7.17;;
7539;SDS011;3811;49.006;12.076;2023-10-19T06:15:09;6.30;;;5.70;;
7539;SDS011;3811;49.006;12.076;2023-10-19T06:17:39;9.33;;;7.10;;
7539;SDS011;3811;49.006;12.076;2023-10-19T06:20:07;8.87;;;7.43;;
7539;SDS011;3811;49.006;12.076;2023-10-19T06:22:45;9.83;;;8.13;;
7539;SDS011;3811;49.006;12.076;2023-10-19T06:25:15;9.20;;;6.53;;
7539;SDS011;3811;49.006;12.076;2023-10-19T06:27:43;9.43;;;7.33;;
7539;SDS011;3811;49.006;12.076;2023-10-19T06:30:11;9.03;;;6.60;;
7539;SDS011;3811;49.006;12.076;2023-10-19T06:32:44;13.00;;;5.77;;
7539;SDS011;3811;49.006;12.076;2023-10-19T06:35:11;11.47;;;8.30;;
7539;SDS011;3811;49.006;12.076;2023-10-19T06:37:38;10.83;;;6.67;;
7539;SDS011;3811;49.006;12.076;2023-10-19T06:40:05;9.17;;;7.10;;
7539;SDS011;3811;49.006;12.076;2023-10-19T06:42:33;11.17;;;6.93;;
7539;SDS011;3811;49.006;12.076;2023-10-19T06:45:01;6.83;;;5.97;;
7539;SDS011;3811;49.006;12.076;2023-10-19T06:47:28;6.90;;;5.77;;
7539;SDS011;3811;49.006;12.076;2023-10-19T06:49:56;9.37;;;6.13;;
7539;SDS011;3811;49.006;12.076;2023-10-19T06:52:24;7.33;;;6.07;;
7539;SDS011;3811;49.006;12.076;2023-10-19T06:54:51;10.50;;;7.50;;
7539;SDS011;3811;49.006;12.076;2023-10-19T06:57:18;8.93;;;6.63;;
7539;SDS011;3811;49.006;12.076;2023-10-19T06:59:44;10.90;;;7.57;;
7539;SDS011;3811;49.006;12.076;2023-10-19T07:02:11;9.73;;;7.47;;
7539;SDS011;3811;49.006;12.076;2023-10-19T07:04:39;7.70;;;6.27;;
7539;SDS011;3811;49.006;12.076;2023-10-19T07:07:07;8.57;;;6.47;;
7539;SDS011;3811;49.006;12.076;2023-10-19T07:09:35;7.60;;;6.13;;
7539;SDS011;3811;49.006;12.076;2023-10-19T07:12:02;8.47;;;6.23;;
7539;SDS011;3811;49.006;12.076;2023-10-19T07:14:31;8.23;;;6.67;;
7539;SDS011;3811;49.006;12.076;2023-10-19T07:16:58;9.57;;;6.13;;
7539;SDS011;3811;49.006;12.076;2023-10-19T07:19:25;6.80;;;6.13;;
7539;SDS011;3811;49.006;12.076;2023-10-19T07:21:54;8.10;;;6.70;;
7539;SDS011;3811;49.006;12.076;2023-10-19T07:24:25;11.00;;;7.13;;
7539;SDS011;3811;49.006;12.076;2023-10-19T07:26:52;10.10;;;6.47;;
7539;SDS011;3811;49.006;12.076;2023-10-19T07:29:29;8.27;;;6.90;;
7539;SDS011;3811;49.006;12.076;2023-10-19T07:31:57;7.07;;;5.47;;
7539;SDS011;3811;49.006;12.076;2023-10-19T07:34:24;8.60;;;6.63;;
7539;SDS011;3811;49.006;12.076;2023-10-19T07:36:53;8.73;;;6.20;;
7539;SDS011;3811;49.006;12.076;2023-10-19T07:39:20;8.33;;;5.67;;
7539;SDS011;3811;49.006;12.076;2023-10-19T07:41:49;10.90;;;6.60;;
7539;SDS011;3811;49.006;12.076;2023-10-19T07:44:16;6.67;;;6.03;;
7539;SDS011;3811;49.006;12.076;2023-10-19T07:46:43;10.27;;;5.17;;
7539;SDS011;3811;49.006;12.076;2023-10-19T07:49:10;9.70;;;6.13;;
7539;SDS011;3811;49.006;12.076;2023-10-19T07:51:40;9.63;;;6.70;;
7539;SDS011;3811;49.006;12.076;2023-10-19T07:54:11;8.30;;;5.90;;
7539;SDS011;3811;49.006;12.076;2023-10-19T07:56:38;9.90;;;6.97;;
7539;SDS011;3811;49.006;12.076;2023-10-19T07:59:06;8.60;;;6.50;;
7539;SDS011;3811;49.006;12.076;2023-10-19T08:01:33;10.27;;;6.67;;
7539;SDS011;3811;49.006;12.076;2023-10-19T08:04:01;7.73;;;6.47;;
7539;SDS011;3811;49.006;12.076;2023-10-19T08:06:28;7.37;;;6.00;;
7539;SDS011;3811;49.006;12.076;2023-10-19T08:08:56;8.43;;;6.17;;
7539;SDS011;3811;49.006;12.076;2023-10-19T08:11:24;7.63;;;6.00;;
7539;SDS011;3811;49.006;12.076;2023-10-19T08:13:51;6.83;;;4.93;;
7539;SDS011;3811;49.006;12.076;2023-10-19T08:16:21;7.77;;;6.00;;
7539;SDS011;3811;49.006;12.076;2023-10-19T08:18:49;7.43;;;6.20;;
7539;SDS011;3811;49.006;12.076;2023-10-19T08:21:18;9.43;;;6.70;;
7539;SDS011;3811;49.006;12.076;2023-10-19T08:23:46;11.33;;;7.40;;
7539;SDS011;3811;49.006;12.076;2023-10-19T08:26:13;7.90;;;6.43;;
7539;SDS011;3811;49.006;12.076;2023-10-19T08:28:41;7.90;;;6.93;;
7539;SDS011;3811;49.006;12.076;2023-10-19T08:31:08;7.93;;;6.00;;
7539;SDS011;3811;49.006;12.076;2023-10-19T08:33:36;6.93;;;6.23;;
7539;SDS011;3811;49.006;12.076;2023-10-19T08:36:06;12.77;;;7.77;;
7539;SDS011;3811;49.006;12.076;2023-10-19T08:38:33;11.00;;;6.40;;
7539;SDS011;3811;49.006;12.076;2023-10-19T08:41:00;7.47;;;6.03;;
7539;SDS011;3811;49.006;12.076;2023-10-19T08:43:28;9.57;;;7.53;;
7539;SDS011;3811;49.006;12.076;2023-10-19T08:45:58;8.50;;;6.17;;
7539;SDS011;3811;49.006;12.076;2023-10-19T08:48:26;7.27;;;5.80;;
7539;SDS011;3811;49.006;12.076;2023-10-19T08:50:55;10.23;;;6.27;;
7539;SDS011;3811;49.006;12.076;2023-10-19T08:53:23;7.93;;;6.03;;
7539;SDS011;3811;49.006;12.076;2023-10-19T08:55:50;11.50;;;6.97;;
7539;SDS011;3811;49.006;12.076;2023-10-19T08:58:19;9.20;;;6.10;;
7539;SDS011;3811;49.006;12.076;2023-10-19T09:00:47;7.70;;;5.90;;
7539;SDS011;3811;49.006;12.076;2023-10-19T09:03:18;7.20;;;5.90;;
7539;SDS011;3811;49.006;12.076;2023-10-19T09:05:47;10.27;;;6.57;;
7539;SDS011;3811;49.006;12.076;2023-10-19T09:08:16;10.30;;;7.10;;
7539;SDS011;3811;49.006;12.076;2023-10-19T09:10:45;6.67;;;5.53;;
7539;SDS011;3811;49.006;12.076;2023-10-19T09:13:12;8.50;;;6.10;;
7539;SDS011;3811;49.006;12.076;2023-10-19T09:15:41;8.97;;;5.93;;
7539;SDS011;3811;49.006;12.076;2023-10-19T09:18:14;8.60;;;6.33;;
7539;SDS011;3811;49.006;12.076;2023-10-19T09:20:42;10.37;;;7.33;;
7539;SDS011;3811;49.006;12.076;2023-10-19T09:23:19;10.17;;;6.23;;
7539;SDS011;3811;49.006;12.076;2023-10-19T09:25:47;8.17;;;5.50;;
7539;SDS011;3811;49.006;12.076;2023-10-19T09:28:14;7.87;;;7.07;;
7539;SDS011;3811;49.006;12.076;2023-10-19T09:30:42;8.00;;;6.83;;
7539;SDS011;3811;49.006;12.076;2023-10-19T09:33:10;10.37;;;7.60;;
7539;SDS011;3811;49.006;12.076;2023-10-19T09:35:39;8.60;;;6.97;;
7539;SDS011;3811;49.006;12.076;2023-10-19T09:38:08;7.60;;;6.33;;
7539;SDS011;3811;49.006;12.076;2023-10-19T09:40:37;12.20;;;6.50;;
7539;SDS011;3811;49.006;12.076;2023-10-19T09:43:07;7.03;;;5.70;;
7539;SDS011;3811;49.006;12.076;2023-10-19T09:45:41;10.27;;;6.53;;
7539;SDS011;3811;49.006;12.076;2023-10-19T09:48:15;12.13;;;6.60;;
7539;SDS011;3811;49.006;12.076;2023-10-19T09:50:44;6.10;;;5.50;;
7539;SDS011;3811;49.006;12.076;2023-10-19T09:53:16;10.50;;;7.23;;
7539;SDS011;3811;49.006;12.076;2023-10-19T09:55:46;11.37;;;6.73;;
7539;SDS011;3811;49.006;12.076;2023-10-19T09:58:15;9.07;;;5.53;;
7539;SDS011;3811;49.006;12.076;2023-10-19T10:00:44;11.03;;;6.90;;
7539;SDS011;3811;49.006;12.076;2023-10-19T10:06:08;6.93;;;5.20;;
7539;SDS011;3811;49.006;12.076;2023-10-19T10:08:37;10.30;;;6.73;;
7539;SDS011;3811;49.006;12.076;2023-10-19T10:11:17;10.30;;;7.17;;
7539;SDS011;3811;49.006;12.076;2023-10-19T10:13:49;11.20;;;6.77;;
7539;SDS011;3811;49.006;12.076;2023-10-19T10:16:20;11.30;;;6.33;;
7539;SDS011;3811;49.006;12.076;2023-10-19T10:18:49;10.03;;;7.47;;
7539;SDS011;3811;49.006;12.076;2023-10-19T10:21:18;11.07;;;6.87;;
7539;SDS011;3811;49.006;12.076;2023-10-19T10:23:47;12.23;;;7.60;;
7539;SDS011;3811;49.006;12.076;2023-10-19T10:26:17;7.30;;;6.57;;
7539;SDS011;3811;49.006;12.076;2023-10-19T10:28:45;8.33;;;6.13;;
7539;SDS011;3811;49.006;12.076;2023-10-19T10:31:14;11.00;;;6.73;;
7539;SDS011;3811;49.006;12.076;2023-10-19T10:33:43;13.53;;;8.23;;
7539;SDS011;3811;49.006;12.076;2023-10-19T10:36:12;14.63;;;6.20;;
7539;SDS011;3811;49.006;12.076;2023-10-19T10:38:40;12.83;;;7.03;;
7539;SDS011;3811;49.006;12.076;2023-10-19T10:41:07;10.87;;;7.43;;
7539;SDS011;3811;49.006;12.076;2023-10-19T10:43:54;9.57;;;6.70;;
7539;SDS011;3811;49.006;12.076;2023-10-19T10:46:22;10.67;;;6.70;;
7539;SDS011;3811;49.006;12.076;2023-10-19T10:48:51;9.57;;;7.27;;
7539;SDS011;3811;49.006;12.076;2023-10-19T10:51:19;17.40;;;7.27;;
7539;SDS011;3811;49.006;12.076;2023-10-19T10:53:48;10.80;;;7.90;;
7539;SDS011;3811;49.006;12.076;2023-10-19T10:56:15;8.73;;;7.30;;
7539;SDS011;3811;49.006;12.076;2023-10-19T10:58:43;9.43;;;6.93;;
7539;SDS011;3811;49.006;12.076;2023-10-19T11:01:11;12.40;;;7.37;;
7539;SDS011;3811;49.006;12.076;2023-10-19T11:03:39;9.17;;;6.83;;
7539;SDS011;3811;49.006;12.076;2023-10-19T11:06:07;12.47;;;8.40;;
7539;SDS011;3811;49.006;12.076;2023-10-19T11:08:35;14.30;;;9.00;;
7539;SDS011;3811;49.006;12.076;2023-10-19T11:11:02;10.93;;;7.87;;
7539;SDS011;3811;49.006;12.076;2023-10-19T11:13:31;11.30;;;7.57;;
7539;SDS011;3811;49.006;12.076;2023-10-19T11:16:00;8.30;;;7.40;;
7539;SDS011;3811;49.006;12.076;2023-10-19T11:18:32;9.90;;;6.90;;
7539;SDS011;3811;49.006;12.076;2023-10-19T11:21:02;12.77;;;9.30;;
7539;SDS011;3811;49.006;12.076;2023-10-19T11:23:38;10.53;;;8.20;;
7539;SDS011;3811;49.006;12.076;2023-10-19T11:26:06;13.13;;;8.23;;
7539;SDS011;3811;49.006;12.076;2023-10-19T11:28:34;9.70;;;7.23;;
7539;SDS011;3811;49.006;12.076;2023-10-19T11:31:14;12.13;;;6.63;;
7539;SDS011;3811;49.006;12.076;2023-10-19T11:33:44;11.50;;;7.97;;
7539;SDS011;3811;49.006;12.076;2023-10-19T11:36:13;11.47;;;8.70;;
7539;SDS011;3811;49.006;12.076;2023-10-19T11:38:41;13.03;;;8.53;;
7539;SDS011;3811;49.006;12.076;2023-10-19T11:41:09;13.30;;;8.23;;
7539;SDS011;3811;49.006;12.076;2023-10-19T11:43:38;12.37;;;8.50;;
7539;SDS011;3811;49.006;12.076;2023-10-19T11:46:05;11.77;;;7.87;;
7539;SDS011;3811;49.006;12.076;2023-10-19T11:48:33;12.07;;;8.77;;
7539;SDS011;3811;49.006;12.076;2023-10-19T11:51:02;14.23;;;8.43;;
7539;SDS011;3811;49.006;12.076;2023-10-19T11:53:30;14.03;;;9.37;;
7539;SDS011;3811;49.006;12.076;2023-10-19T11:56:00;10.90;;;7.77;;
7539;SDS011;3811;49.006;12.076;2023-10-19T11:58:29;10.63;;;7.73;;
7539;SDS011;3811;49.006;12.076;2023-10-19T12:00:57;14.40;;;8.30;;
7539;SDS011;3811;49.006;12.076;2023-10-19T12:03:25;9.37;;;7.60;;
7539;SDS011;3811;49.006;12.076;2023-10-19T12:05:53;11.97;;;8.17;;
7539;SDS011;3811;49.006;12.076;2023-10-19T12:08:22;14.63;;;7.80;;
7539;SDS011;3811;49.006;12.076;2023-10-19T12:10:50;16.43;;;8.30;;
7539;SDS011;3811;49.006;12.076;2023-10-19T12:13:17;8.90;;;7.37;;
7539;SDS011;3811;49.006;12.076;2023-10-19T12:15:44;10.33;;;7.97;;
7539;SDS011;3811;49.006;12.076;2023-10-19T12:18:17;9.97;;;7.07;;
7539;SDS011;3811;49.006;12.076;2023-10-19T12:20:45;9.73;;;8.57;;
7539;SDS011;3811;49.006;12.076;2023-10-19T12:23:12;11.47;;;8.03;;
7539;SDS011;3811;49.006;12.076;2023-10-19T12:25:41;14.77;;;9.37;;
7539;SDS011;3811;49.006;12.076;2023-10-19T12:28:08;10.97;;;8.17;;
7539;SDS011;3811;49.006;12.076;2023-10-19T12:30:39;12.63;;;7.90;;
7539;SDS011;3811;49.006;12.076;2023-10-19T12:33:07;9.53;;;7.70;;
7539;SDS011;3811;49.006;12.076;2023-10-19T12:35:37;13.20;;;8.57;;
7539;SDS011;3811;49.006;12.076;2023-10-19T12:38:14;10.10;;;7.17;;
7539;SDS011;3811;49.006;12.076;2023-10-19T12:40:44;9.33;;;7.10;;
7539;SDS011;3811;49.006;12.076;2023-10-19T12:43:12;11.53;;;7.20;;
7539;SDS011;3811;49.006;12.076;2023-10-19T12:45:40;9.93;;;7.37;;
7539;SDS011;3811;49.006;12.076;2023-10-19T12:48:09;10.13;;;7.47;;
7539;SDS011;3811;49.006;12.076;2023-10-19T12:50:36;9.47;;;7.57;;
7539;SDS011;3811;49.006;12.076;2023-10-19T12:53:06;13.73;;;8.53;;
7539;SDS011;3811;49.006;12.076;2023-10-19T12:55:34;11.40;;;7.13;;
7539;SDS011;3811;49.006;12.076;2023-10-19T12:58:04;9.53;;;7.10;;
7539;SDS011;3811;49.006;12.076;2023-10-19T13:00:35;11.30;;;8.00;;
7539;SDS011;3811;49.006;12.076;2023-10-19T13:03:06;8.93;;;7.20;;
7539;SDS011;3811;49.006;12.076;2023-10-19T13:05:34;9.53;;;7.47;;
7539;SDS011;3811;49.006;12.076;2023-10-19T13:08:02;13.13;;;8.17;;
7539;SDS011;3811;49.006;12.076;2023-10-19T13:10:32;12.00;;;8.60;;
7539;SDS011;3811;49.006;12.076;2023-10-19T13:13:02;10.87;;;8.33;;
7539;SDS011;3811;49.006;12.076;2023-10-19T13:15:31;12.60;;;7.67;;
7539;SDS011;3811;49.006;12.076;2023-10-19T13:18:00;10.87;;;8.10;;
7539;SDS011;3811;49.006;12.076;2023-10-19T13:20:28;10.17;;;7.93;;
7539;SDS011;3811;49.006;12.076;2023-10-19T13:22:59;8.70;;;7.70;;
7539;SDS011;3811;49.006;12.076;2023-10-19T13:25:28;10.70;;;8.53;;
7539;SDS011;3811;49.006;12.076;2023-10-19T13:28:09;11.80;;;7.30;;
7539;SDS011;3811;49.006;12.076;2023-10-19T13:30:40;13.37;;;8.93;;
7539;SDS011;3811;49.006;12.076;2023-10-19T13:33:07;13.93;;;8.43;;
7539;SDS011;3811;49.006;12.076;2023-10-19T13:35:36;11.13;;;7.53;;
7539;SDS011;3811;49.006;12.076;2023-10-19T13:38:05;10.53;;;7.50;;
7539;SDS011;3811;49.006;12.076;2023-10-19T13:40:39;11.50;;;8.23;;
7539;SDS011;3811;49.006;12.076;2023-10-19T13:43:13;14.80;;;9.00;;
7539;SDS011;3811;49.006;12.076;2023-10-19T13:45:46;13.60;;;8.77;;
7539;SDS011;3811;49.006;12.076;2023-10-19T13:48:16;12.60;;;8.17;;
7539;SDS011;3811;49.006;12.076;2023-10-19T13:50:45;16.50;;;9.87;;
7539;SDS011;3811;49.006;12.076;2023-10-19T13:53:14;14.93;;;10.17;;
7539;SDS011;3811;49.006;12.076;2023-10-19T13:55:41;13.77;;;9.43;;
7539;SDS011;3811;49.006;12.076;2023-10-19T13:58:11;16.60;;;9.70;;
7539;SDS011;3811;49.006;12.076;2023-10-19T14:00:41;13.57;;;8.40;;
7539;SDS011;3811;49.006;12.076;2023-10-19T14:03:10;13.93;;;9.30;;
7539;SDS011;3811;49.006;12.076;2023-10-19T14:05:39;12.93;;;8.90;;
7539;SDS011;3811;49.006;12.076;2023-10-19T14:08:08;12.43;;;8.27;;
7539;SDS011;3811;49.006;12.076;2023-10-19T14:10:35;14.03;;;10.23;;
7539;SDS011;3811;49.006;12.076;2023-10-19T14:13:06;14.17;;;9.50;;
7539;SDS011;3811;49.006;12.076;2023-10-19T14:15:33;11.43;;;8.73;;
7539;SDS011;3811;49.006;12.076;2023-10-19T14:18:00;13.03;;;9.57;;
7539;SDS011;3811;49.006;12.076;2023-10-19T14:20:29;15.07;;;10.23;;
7539;SDS011;3811;49.006;12.076;2023-10-19T14:22:59;13.40;;;8.40;;
7539;SDS011;3811;49.006;12.076;2023-10-19T14:25:26;12.67;;;9.10;;
7539;SDS011;3811;49.006;12.076;2023-10-19T14:27:54;12.23;;;9.43;;
7539;SDS011;3811;49.006;12.076;2023-10-19T14:30:24;24.87;;;10.97;;
7539;SDS011;3811;49.006;12.076;2023-10-19T14:32:52;13.80;;;9.67;;
7539;SDS011;3811;49.006;12.076;2023-10-19T14:35:19;15.13;;;10.40;;
7539;SDS011;3811;49.006;12.076;2023-10-19T14:37:49;14.33;;;10.57;;
7539;SDS011;3811;49.006;12.076;2023-10-19T14:40:17;12.03;;;9.10;;
7539;SDS011;3811;49.006;12.076;2023-10-19T14:42:46;16.50;;;9.17;;
7539;SDS011;3811;49.006;12.076;2023-10-19T14:45:16;13.47;;;10.17;;
7539;SDS011;3811;49.006;12.076;2023-10-19T14:47:46;14.27;;;9.73;;
7539;SDS011;3811;49.006;12.076;2023-10-19T14:50:13;17.90;;;11.30;;
7539;SDS011;3811;49.006;12.076;2023-10-19T14:52:43;15.03;;;9.80;;
7539;SDS011;3811;49.006;12.076;2023-10-19T14:55:12;17.67;;;9.57;;
7539;SDS011;3811;49.006;12.076;2023-10-19T14:57:41;12.10;;;9.07;;
7539;SDS011;3811;49.006;12.076;2023-10-19T15:00:10;13.97;;;9.97;;
7539;SDS011;3811;49.006;12.076;2023-10-19T15:02:41;15.10;;;10.60;;
7539;SDS011;3811;49.006;12.076;2023-10-19T15:05:10;12.87;;;9.47;;
7539;SDS011;3811;49.006;12.076;2023-10-19T15:07:39;14.13;;;10.10;;
7539;SDS011;3811;49.006;12.076;2023-10-19T15:10:07;11.30;;;8.27;;